Tiempo atmosférico en la estación meteorológica de Almudébar, Huesca (390 m.)

Fecha
DESCASC
Temp. máxima en grados centígrados (hora)
DESCASC
Temp. mínima en grados centígrados (hora)
DESCASC
Temp. media en grados centígrados
DESCASC
Racha de viento máxima en m/sg (hora)
DESCASC
Velocidad máxima media en intervalos de 10 minutos(hora)
DESCASC
Precipitaciones diarias en mm
DESCASC
Precipitaciones de 00:00 a 06:00 en mm
DESCASC
Precipitaciones de 06:00 a 12:00 en mm
DESCASC
Precipitaciones de 12:00 a 18:00 en mm
DESCASC
Precipitaciones de 18:00 a 24:00 en mm
DESCASC

Gráficas

Temp. máximas Temp. mínimas Temp. medias Precipitaciones Rachas de viento máximas Velocidades máximas media en intervalos de 10 minutos

Datos horarios

Fecha y hora oficial Temperatura (ºC) Velocidad del viento (km/h) Dirección del viento Racha (km/h) Dirección de racha Precipitación (mm) Presión (hPa) Tendencia (hPa) Humedad (%)
2017-08-17 23:00:00 25.3 15 Este 20 Nordeste 0 -- -- 54
2017-08-17 22:00:00 25 9 Este 13 Este 0 -- -- 57
2017-08-17 21:00:00 28.3 8 Sudeste 14 Sudeste 0 -- -- 51
2017-08-17 20:00:00 32.6 8 Sudeste 12 Sudeste 0 -- -- 46
2017-08-17 19:00:00 34.9 3 Noroeste 7 Sudoeste 0 -- -- 33
2017-08-17 18:00:00 34.3 3 Nordeste 10 Sudoeste 0 -- -- 32
2017-08-17 17:00:00 33.8 5 Noroeste 12 Oeste 0 -- -- 32
2017-08-17 16:00:00 33.1 6 Noroeste 17 Sudoeste 0 -- -- 34
2017-08-17 15:00:00 31.4 10 Oeste 15 Oeste 0 -- -- 40
2017-08-17 14:00:00 30.2 7 Oeste 13 Sudoeste 0 -- -- 48
2017-08-17 13:00:00 28.8 5 Sudeste 15 Sudeste 0 -- -- 50
2017-08-17 12:00:00 26.8 9 Sur 15 Sudeste 0 -- -- 62
2017-08-17 11:00:00 24.7 4 Sudeste 8 Sudeste 0 -- -- 67
2017-08-17 10:00:00 21.4 4 Sudoeste 7 Sudoeste 0 -- -- 73
2017-08-17 09:00:00 17.8 3 Noroeste 9 Noroeste 0 -- -- 81
2017-08-17 08:00:00 15.2 2 Noroeste 5 Noroeste 0 -- -- 87
2017-08-17 07:00:00 14.5 3 Noroeste 5 Noroeste 0 -- -- 85
2017-08-17 06:00:00 15.3 3 Noroeste 13 Sudoeste 0 -- -- 82
2017-08-17 05:00:00 16.3 4 Noroeste 16 Oeste 0 -- -- 79
2017-08-17 04:00:00 17.3 7 Oeste 25 Noroeste 0 -- -- 74
2017-08-17 03:00:00 17.8 8 Oeste 17 Sudoeste 0 -- -- 70
2017-08-17 02:00:00 18.4 9 Noroeste 35 Oeste 0 -- -- 66
2017-08-17 01:00:00 20.2 20 Noroeste 35 Oeste 0 -- -- 60
2017-08-17 00:00:00 21.5 9 Oeste 19 Noroeste 0 -- -- 66
2017-08-16 23:00:00 22.6 8 Oeste 19 Oeste 0 -- -- 58
2017-08-16 22:00:00 24.9 15 Oeste 23 Oeste 0 -- -- 51
2017-08-16 21:00:00 26.8 7 Oeste 23 Oeste 0 -- -- 48
2017-08-16 20:00:00 30 10 Oeste 19 Oeste 0 -- -- 42
2017-08-16 19:00:00 31.5 8 Oeste 17 Oeste 0 -- -- 44
2017-08-16 18:00:00 31.8 9 Oeste 19 Oeste 0 -- -- 45
2017-08-16 17:00:00 31.1 4 Oeste 13 Sudoeste 0 -- -- 48
2017-08-16 16:00:00 29.9 8 Sudoeste 15 Sudoeste 0 -- -- 52
2017-08-16 15:00:00 28.9 8 Oeste 15 Oeste 0 -- -- 55
2017-08-16 14:00:00 27.8 4 Sur 12 Sudeste 0 -- -- 60
2017-08-16 13:00:00 26.2 5 Nordeste 10 Sudeste 0 -- -- 69
2017-08-16 12:00:00 24.5 4 Oeste 10 Oeste 0 -- -- 72
2017-08-16 11:00:00 22 5 Noroeste 13 Oeste 0 -- -- 79
2017-08-16 10:00:00 19.7 4 Noroeste 10 Oeste 0 -- -- 86
2017-08-16 09:00:00 18.1 4 Oeste 7 Oeste 0 -- -- 91
2017-08-16 08:00:00 17.2 4 Noroeste 9 Noroeste 0 -- -- 92
2017-08-16 07:00:00 17.2 4 Oeste 9 Noroeste 0 -- -- 92
2017-08-16 06:00:00 17.2 5 Noroeste 9 Noroeste 0 -- -- 91
2017-08-16 05:00:00 17.9 6 Noroeste 10 Noroeste 0 -- -- 90
2017-08-16 04:00:00 18.7 5 Noroeste 11 Sudoeste 0 -- -- 88
2017-08-16 03:00:00 19.7 6 Nordeste 8 Nordeste 0 -- -- 86
2017-08-16 02:00:00 20.2 4 Nordeste 15 Este 0 -- -- 85
2017-08-16 01:00:00 20.6 9 Este 18 Sudeste 0 -- -- 82
2017-08-16 00:00:00 21.3 13 Sudeste 18 Este 0 -- -- 81
2017-08-15 23:00:00 21.6 11 Este 21 Este 0 -- -- 82
2017-08-15 22:00:00 22.7 14 Este 25 Este 0 -- -- 75
2017-08-15 21:00:00 22.9 17 Este 45 Este 0.2 -- -- 72
2017-08-15 20:00:00 23.3 26 Nordeste 45 Este 5.4 -- -- 72
2017-08-15 19:00:00 28.8 17 Sudeste 27 Este 0 -- -- 49
2017-08-15 18:00:00 30.3 18 Este 30 Sudeste 0 -- -- 45
2017-08-15 17:00:00 30.8 18 Sudeste 30 Sudeste 0 -- -- 39
2017-08-15 16:00:00 30.3 19 Sudeste 32 Sudeste 0 -- -- 40
2017-08-15 15:00:00 29.9 16 Sudeste 30 Sudeste 0 -- -- 44
2017-08-15 14:00:00 28.5 16 Sudeste 28 Sudeste 0 -- -- 47
2017-08-15 13:00:00 27.6 17 Sudeste 31 Este 0 -- -- 50
2017-08-15 12:00:00 24.9 15 Este 26 Sudeste 0.2 -- -- 58
2017-08-15 11:00:00 23.6 17 Sudeste 23 Este 0 -- -- 57
2017-08-15 10:00:00 22.7 16 Sudeste 23 Este 0 -- -- 58
2017-08-15 09:00:00 19.4 9 Sudeste 17 Este 0 -- -- 70
2017-08-15 08:00:00 16.9 13 Este 20 Este 0 -- -- 77
2017-08-15 07:00:00 16.7 10 Este 18 Este 0 -- -- 78
2017-08-15 06:00:00 17 9 Nordeste 17 Este 0 -- -- 74
2017-08-15 05:00:00 18 11 Este 21 Este 0 -- -- 70
2017-08-15 04:00:00 18.3 15 Sudeste 25 Este 0 -- -- 69
2017-08-15 03:00:00 18.9 14 Sudeste 25 Sudeste 0 -- -- 68
2017-08-15 02:00:00 20.8 17 Este 24 Este 0 -- -- 60
2017-08-15 01:00:00 22.5 15 Este 24 Nordeste 0 -- -- 53
2017-08-15 00:00:00 22.7 13 Nordeste 26 Este 0 -- -- 55
2017-08-14 23:00:00 23 14 Este 25 Este 0 -- -- 54
2017-08-14 22:00:00 23.7 17 Este 29 Este 0 -- -- 58
2017-08-14 21:00:00 26.6 18 Este 40 Este 0 -- -- 50
2017-08-14 20:00:00 29.3 25 Este 41 Este 0 -- -- 42
2017-08-14 19:00:00 31 27 Este 37 Este 0 -- -- 38
2017-08-14 18:00:00 31.3 21 Este 32 Este 0 -- -- 40
2017-08-14 17:00:00 31.3 17 Sudeste 30 Este 0 -- -- 41
2017-08-14 16:00:00 30.8 16 Este 27 Sudeste 0 -- -- 41
2017-08-14 15:00:00 29.8 19 Este 30 Sudeste 0 -- -- 39
2017-08-14 14:00:00 29 17 Sudeste 30 Sudeste 0 -- -- 46
2017-08-14 13:00:00 27.7 17 Sudeste 31 Sudeste 0 -- -- 53
2017-08-14 12:00:00 26.1 14 Sudeste 28 Sudeste 0 -- -- 56
2017-08-14 11:00:00 24.3 19 Sudeste -- -- -- -- -- 57
2017-08-14 10:00:00 22.5 18 Este 29 Este 0 -- -- 60
2017-08-14 09:00:00 19.7 13 Sudeste 23 Sudeste 0 -- -- 74
2017-08-14 08:00:00 17 9 Este 17 Este 0 -- -- 85
2017-08-14 07:00:00 16.2 13 Este 19 Este 0 -- -- 87
2017-08-14 06:00:00 16.6 10 Este 17 Este 0 -- -- 84
2017-08-14 05:00:00 17.6 9 Este 22 Este 0 -- -- 78
2017-08-14 04:00:00 18.7 15 Este 25 Este 0 -- -- 75
2017-08-14 03:00:00 19.4 15 Este 33 Este 0 -- -- 74
2017-08-14 02:00:00 20.4 21 Este 33 Este 0 -- -- 73
2017-08-14 01:00:00 21.4 19 Este 28 Este 0 -- -- 69
2017-08-14 00:00:00 21.7 15 Este 25 Este 0 -- -- 61
2017-08-13 23:00:00 22.7 13 Nordeste 20 Nordeste 0 -- -- 58
2017-08-13 22:00:00 22.3 7 Sudeste 17 Sudeste 0 -- -- 63
2017-08-13 21:00:00 25.8 9 Este 17 Este 0 -- -- 49
2017-08-13 20:00:00 28.2 12 Sudeste 20 Este 0 -- -- 43
2017-08-13 19:00:00 30.1 11 Este 19 Este 0 -- -- 43
2017-08-13 18:00:00 30.8 8 Sudeste 17 Sudeste 0 -- -- 44
2017-08-13 17:00:00 31.2 6 Sudeste 13 Sur 0 -- -- 41
2017-08-13 16:00:00 30.4 4 Este 12 Este 0 -- -- 32
2017-08-13 15:00:00 29.4 5 Sudeste 14 Sudeste 0 -- -- 41
2017-08-13 14:00:00 28 5 Sudeste 14 Sudeste 0 -- -- 42
2017-08-13 13:00:00 26.5 7 Sudeste 17 Sudeste 0 -- -- 52
2017-08-13 12:00:00 24.7 10 Sudeste 19 Sudeste 0 -- -- 57
2017-08-13 11:00:00 23 9 Sudeste 14 Sudeste 0 -- -- 62
2017-08-13 10:00:00 20.9 7 Sudeste 12 Sudeste 0 -- -- 68
2017-08-13 09:00:00 17.8 2 Sudoeste 5 Nordeste 0 -- -- 81
2017-08-13 08:00:00 13.5 0 Calma 6 Nordeste 0 -- -- 87
2017-08-13 07:00:00 12.4 3 Nordeste 6 Nordeste 0 -- -- 85
2017-08-13 06:00:00 13.2 6 Nordeste 8 Nordeste 0 -- -- 84
2017-08-13 05:00:00 14 0 Calma 4 Nordeste 0 -- -- 84
2017-08-13 04:00:00 14.5 4 Este 6 Este 0 -- -- 81
2017-08-13 03:00:00 15 3 Este 10 Este 0 -- -- 77
2017-08-13 02:00:00 16.2 5 Este 8 Este 0 -- -- 72
2017-08-13 01:00:00 17.2 6 Este 9 Este 0 -- -- 70
2017-08-13 00:00:00 18.5 6 Este 13 Nordeste 0 -- -- 71
2017-08-12 23:00:00 18.7 0 Calma 8 Este 0 -- -- 73
2017-08-12 22:00:00 20.9 5 Este 8 Sudeste 0 -- -- 67
2017-08-12 21:00:00 25.2 5 Sur 14 Sudoeste 0 -- -- 57
2017-08-12 20:00:00 26.7 9 Sudoeste 13 Sudoeste 0 -- -- 43
2017-08-12 19:00:00 28.6 10 Sudoeste 20 Oeste 0 -- -- 37
2017-08-12 18:00:00 29.8 5 Oeste 17 Noroeste 0 -- -- 37
2017-08-12 17:00:00 28.7 10 Sudoeste 20 Oeste 0 -- -- 39
2017-08-12 16:00:00 27.9 10 Oeste 27 Sudoeste 0 -- -- 36
2017-08-12 15:00:00 26.3 9 Sudoeste 18 Sur 0 -- -- 40
2017-08-12 14:00:00 25 5 Sudoeste 12 Sudoeste 0 -- -- 39
2017-08-12 13:00:00 23.7 6 Oeste 12 Sudoeste 0 -- -- 44
2017-08-12 12:00:00 22.2 4 Sudeste 10 Sudeste 0 -- -- 48
2017-08-12 11:00:00 19.9 6 Sur 12 Sur 0 -- -- 57
2017-08-12 10:00:00 17.2 5 Sudoeste 12 Noroeste 0 -- -- 69
2017-08-12 09:00:00 14 4 Oeste 9 Oeste 0 -- -- 82
2017-08-12 08:00:00 11.3 4 Noroeste 9 Noroeste 0 -- -- 87
2017-08-12 07:00:00 10.5 3 Noroeste 9 Noroeste 0 -- -- 86
2017-08-12 06:00:00 10.7 4 Noroeste 8 Noroeste 0 -- -- 87
2017-08-12 05:00:00 11.7 6 Noroeste 12 Oeste 0 -- -- 84
2017-08-12 04:00:00 12.4 8 Noroeste 17 Noroeste 0 -- -- 82
2017-08-12 03:00:00 13 9 Noroeste 16 Oeste 0 -- -- 78
2017-08-12 02:00:00 13.8 9 Oeste 21 Oeste 0 -- -- 74
2017-08-12 01:00:00 14.7 13 Oeste 23 Noroeste 0 -- -- 70
2017-08-12 00:00:00 15.4 7 Oeste 22 Oeste 0 -- -- 67
2017-08-11 23:00:00 16.6 14 Oeste 34 Oeste 0 -- -- 61
2017-08-11 22:00:00 18 18 Oeste 31 Oeste 0 -- -- 56
2017-08-11 21:00:00 20.7 11 Oeste 34 Oeste 0 -- -- 46
2017-08-11 20:00:00 23.7 20 Oeste 39 Oeste 0 -- -- 38
2017-08-11 19:00:00 25 18 Oeste 39 Oeste 0 -- -- 36
2017-08-11 18:00:00 25.2 25 Oeste 45 Sudoeste 0 -- -- 37
2017-08-11 17:00:00 25.5 24 Oeste 44 Oeste 0 -- -- 37
2017-08-11 16:00:00 25.6 22 Oeste 40 Oeste 0 -- -- 36
2017-08-11 15:00:00 25.1 18 Oeste 40 Oeste 0 -- -- 38
2017-08-11 14:00:00 23.9 20 Oeste 39 Oeste 0 -- -- 41
2017-08-11 13:00:00 22.8 17 Oeste 32 Oeste 0 -- -- 43
2017-08-11 12:00:00 21.3 18 Noroeste 33 Noroeste 0 -- -- 47
2017-08-11 11:00:00 19 21 Noroeste 37 Oeste 0 -- -- 48
2017-08-11 10:00:00 16.5 23 Oeste 39 Oeste 0 -- -- 59
2017-08-11 09:00:00 14.3 21 Oeste 36 Oeste 0 -- -- 70
2017-08-11 08:00:00 12.7 15 Oeste 32 Oeste 0 -- -- 76
2017-08-11 07:00:00 12.3 19 Oeste 31 Oeste 0 -- -- 75
2017-08-11 06:00:00 12.3 12 Oeste 31 Oeste 0 -- -- 70
2017-08-11 05:00:00 12 17 Oeste 44 Noroeste 0 -- -- 72
2017-08-11 04:00:00 12 24 Noroeste 40 Oeste 0 -- -- 76
2017-08-11 03:00:00 12.7 20 Oeste 53 Oeste 0 -- -- 74
2017-08-11 02:00:00 13.3 30 Oeste 49 Noroeste 0 -- -- 74
2017-08-11 01:00:00 13.8 17 Oeste 45 Oeste 0 -- -- 70
2017-08-11 00:00:00 14.9 20 Oeste 42 Noroeste 0 -- -- 61
2017-08-10 23:00:00 16.2 30 Noroeste 49 Noroeste 0 -- -- 55
2017-08-10 22:00:00 17.2 32 Noroeste 48 Noroeste 0 -- -- 55
2017-08-10 21:00:00 17.9 23 Noroeste 48 Noroeste 0 -- -- 58
2017-08-10 20:00:00 19.9 30 Noroeste 54 Noroeste 0 -- -- 54
2017-08-10 19:00:00 21.4 33 Noroeste 58 Noroeste 0 -- -- 48
2017-08-10 18:00:00 22.6 33 Noroeste 51 Noroeste 0 -- -- 45
2017-08-10 17:00:00 23.4 32 Noroeste 52 Noroeste 0 -- -- 44
2017-08-10 16:00:00 22.8 31 Noroeste 52 Oeste 0 -- -- 46
2017-08-10 15:00:00 23.1 31 Oeste 51 Oeste 0 -- -- 45
2017-08-10 14:00:00 22.5 26 Oeste 46 Oeste 0 -- -- 47
2017-08-10 13:00:00 20.8 26 Oeste 51 Oeste 0 -- -- 53
2017-08-10 12:00:00 20.7 21 Oeste -- -- -- -- -- 52
2017-08-10 11:00:00 19.3 25 Noroeste 46 Oeste 0 -- -- 54
2017-08-10 10:00:00 17.4 25 Oeste 40 Oeste 0 -- -- 64
2017-08-10 09:00:00 14.9 21 Oeste 39 Oeste 0 -- -- 75
2017-08-10 08:00:00 12.8 22 Oeste 37 Noroeste 0 -- -- 81
2017-08-10 07:00:00 11.8 16 Noroeste 29 Noroeste 0 -- -- 83
2017-08-10 06:00:00 11.8 10 Noroeste 26 Oeste 0 -- -- 83
2017-08-10 05:00:00 12 12 Oeste 31 Oeste 0 -- -- 82
2017-08-10 04:00:00 12.2 19 Oeste 39 Oeste 0 -- -- 80
2017-08-10 03:00:00 12.5 15 Oeste 32 Oeste 0 -- -- 73
2017-08-10 02:00:00 12.3 14 Noroeste 28 Oeste 0 -- -- 70
2017-08-10 01:00:00 13 16 Oeste 28 Oeste 0 -- -- 69
2017-08-10 00:00:00 14.1 17 Oeste 32 Oeste 0 -- -- 59
2017-08-09 23:00:00 14.7 19 Oeste 31 Oeste 0 -- -- 57
2017-08-09 22:00:00 15.6 18 Oeste 33 Noroeste 0 -- -- 54
2017-08-09 21:00:00 17.6 21 Noroeste 38 Noroeste 0 -- -- 47
2017-08-09 20:00:00 19.1 16 Noroeste 28 Noroeste 0 -- -- 46
2017-08-09 19:00:00 19.3 18 Noroeste 28 Noroeste 0 -- -- 51
2017-08-09 18:00:00 19.5 13 Noroeste 33 Norte 0 -- -- 51
2017-08-09 17:00:00 20.1 17 Noroeste 30 Noroeste 0 -- -- 51
2017-08-09 16:00:00 19 6 Oeste 37 Oeste 0.4 -- -- 76
2017-08-09 15:00:00 21.1 18 Oeste 34 Oeste 0 -- -- 53
2017-08-09 14:00:00 21.7 7 Oeste 14 Sudoeste 0 -- -- 49
2017-08-09 13:00:00 20.4 8 Oeste 22 Oeste 0 -- -- 51
2017-08-09 12:00:00 19.5 11 Oeste 23 Oeste 0 -- -- 56
2017-08-09 11:00:00 17.8 9 Oeste 22 Oeste 0 -- -- 64
2017-08-09 10:00:00 15.2 11 Oeste 19 Noroeste 0 -- -- 73
2017-08-09 09:00:00 13.6 8 Oeste 14 Oeste 0 -- -- 78
2017-08-09 08:00:00 12.2 3 Oeste 21 Oeste 0 -- -- 86
2017-08-09 07:00:00 11.5 7 Oeste 17 Oeste 0 -- -- 86
2017-08-09 06:00:00 12 4 Noroeste 24 Oeste 0 -- -- 83
2017-08-09 05:00:00 12.5 17 Oeste 26 Oeste 0 -- -- 82
2017-08-09 04:00:00 12.6 5 Oeste 13 Oeste 0 -- -- 81
2017-08-09 03:00:00 13.3 4 Sudoeste 26 Sudoeste 0 -- -- 75
2017-08-09 02:00:00 14 13 Sudoeste 27 Oeste 0 -- -- 73
2017-08-09 01:00:00 14.6 6 Sudoeste 21 Noroeste 0 -- -- 71
2017-08-09 00:00:00 16.5 21 Noroeste 41 Noroeste 0 -- -- 62
2017-08-08 23:00:00 16.3 14 Noroeste 22 Noroeste 0 -- -- 66
2017-08-08 22:00:00 18.2 11 Noroeste 23 Noroeste 0 -- -- 59
2017-08-08 21:00:00 20.2 14 Oeste 34 Oeste 0 -- -- 55
2017-08-08 20:00:00 22.3 22 Oeste 48 Oeste 0 -- -- 49
2017-08-08 19:00:00 24 26 Oeste 48 Noroeste 0 -- -- 45
2017-08-08 18:00:00 24.6 32 Noroeste 56 Oeste 0 -- -- 41
2017-08-08 17:00:00 25.7 30 Oeste 53 Oeste 0 -- -- 38
2017-08-08 16:00:00 25.9 31 Oeste 51 Oeste 0 -- -- 38
2017-08-08 15:00:00 25.5 29 Oeste 52 Oeste 0 -- -- 40
2017-08-08 14:00:00 25.5 27 Oeste 49 Oeste 0 -- -- 43
2017-08-08 13:00:00 24.7 26 Oeste 50 Oeste 0 -- -- 43
2017-08-08 12:00:00 23.1 22 Oeste 46 Oeste 0 -- -- 52
2017-08-08 11:00:00 21.9 21 Oeste 44 Oeste 0 -- -- 56
2017-08-08 10:00:00 20.5 20 Oeste 47 Oeste 0 -- -- 63
2017-08-08 09:00:00 18.3 26 Oeste 47 Oeste 0 -- -- 72
2017-08-08 08:00:00 17 23 Oeste 41 Oeste 0 -- -- 77
2017-08-08 07:00:00 17.2 15 Oeste 27 Oeste 0 -- -- 76
2017-08-08 06:00:00 18.7 15 Oeste 27 Noroeste 0 -- -- 74
2017-08-08 05:00:00 19.5 19 Oeste 36 Noroeste 0 -- -- 77
2017-08-08 04:00:00 21.3 13 Oeste 25 Oeste 0 -- -- 77
2017-08-08 03:00:00 22.6 10 Oeste 20 Noroeste 0 -- -- 78
2017-08-08 02:00:00 23.1 7 Este 14 Este 0 -- -- 80
2017-08-08 01:00:00 23.4 12 Este 32 Este 0 -- -- 79
2017-08-08 00:00:00 23.2 19 Este 37 Este 0 -- -- 81
2017-08-07 23:00:00 23.6 22 Este 42 Este 0 -- -- 79
2017-08-07 22:00:00 24.5 24 Este 38 Este 0 -- -- 77
2017-08-07 21:00:00 27.1 25 Este 41 Este 0 -- -- 64
2017-08-07 20:00:00 29.1 28 Este 42 Este 0 -- -- 60
2017-08-07 19:00:00 29.7 28 Este 40 Este 0 -- -- 55
2017-08-07 18:00:00 29.4 21 Este 37 Este 0 -- -- 54
2017-08-07 17:00:00 29.9 21 Este 36 Sudeste 0 -- -- 53
2017-08-07 16:00:00 29.7 21 Este 35 Este 0 -- -- 55
2017-08-07 15:00:00 29.8 18 Este 32 Sudeste 0 -- -- 58
2017-08-07 14:00:00 29.3 18 Este 33 Este 0 -- -- 60
2017-08-07 13:00:00 27.9 18 Este 30 Este 0 -- -- 64
2017-08-07 12:00:00 26.4 18 Sudeste 33 Sudeste 0 -- -- 72
2017-08-07 11:00:00 24.7 17 Este -- -- -- -- -- 77
2017-08-07 10:00:00 23.6 19 Sudeste 28 Sudeste 0 -- -- 81
2017-08-07 09:00:00 22.5 14 Sudeste 23 Sudeste 0 -- -- 83
2017-08-07 08:00:00 21.6 10 Sudeste 20 Sudeste 0 -- -- 87
2017-08-07 07:00:00 21.6 10 Este 15 Sudeste 0 -- -- 87
2017-08-07 06:00:00 21.6 9 Este 18 Este 0 -- -- 86
2017-08-07 05:00:00 21.7 10 Este 17 Este 0 -- -- 85
2017-08-07 04:00:00 21.7 8 Este 15 Este 0 -- -- 82
2017-08-07 03:00:00 21.7 4 Sudeste 12 Sudeste 0 -- -- 79
2017-08-07 02:00:00 21.9 5 Nordeste 9 Nordeste 0 -- -- 73
2017-08-07 01:00:00 21.7 6 Norte 8 Noroeste 0 -- -- 71
2017-08-07 00:00:00 22.1 4 Noroeste 9 Noroeste 0 -- -- 73
2017-08-06 23:00:00 22.9 4 Noroeste 9 Oeste 0 -- -- 74
2017-08-06 22:00:00 24.3 8 Este 10 Este 0 -- -- 66
2017-08-06 21:00:00 26.8 8 Este 15 Sudeste 0 -- -- 58
2017-08-06 20:00:00 28.5 9 Sudeste 14 Sudeste 0 -- -- 52
2017-08-06 19:00:00 29.4 8 Sudeste 13 Sudeste 0 -- -- 51
2017-08-06 18:00:00 29.7 4 Sudeste 12 Sudeste 0 -- -- 49
2017-08-06 17:00:00 29 5 Sur 13 Sudoeste 0 -- -- 50
2017-08-06 16:00:00 28.2 5 Oeste 15 Oeste 0 -- -- 50
2017-08-06 15:00:00 27 6 Sudeste 14 Sudoeste 0 -- -- 57
2017-08-06 14:00:00 25.2 5 Oeste 15 Sur 0 -- -- 56
2017-08-06 13:00:00 23.6 9 Sudoeste 15 Sur 0 -- -- 59
2017-08-06 12:00:00 21.7 6 Oeste 15 Noroeste 0 -- -- 67
2017-08-06 11:00:00 19.9 9 Noroeste 21 Oeste 0 -- -- 68
2017-08-06 10:00:00 18 15 Oeste 26 Oeste 0 -- -- 70
2017-08-06 09:00:00 16.6 11 Oeste 22 Oeste 0 -- -- 74
2017-08-06 08:00:00 15.4 6 Oeste 18 Oeste 0 -- -- 78
2017-08-06 07:00:00 15.3 8 Oeste 25 Oeste 0 -- -- 80
2017-08-06 06:00:00 15.6 12 Oeste 27 Oeste 0 -- -- 84
2017-08-06 05:00:00 16 17 Oeste 29 Oeste 0 -- -- 86
2017-08-06 04:00:00 16.5 17 Oeste 30 Oeste 1 -- -- 88
2017-08-06 03:00:00 17.3 19 Oeste 33 Oeste 0 -- -- 83
2017-08-06 02:00:00 17.4 15 Oeste 42 Oeste 0 -- -- 82
2017-08-06 01:00:00 17.9 15 Oeste 34 Noroeste 0 -- -- 80
2017-08-06 00:00:00 18.8 21 Oeste 44 Oeste 0 -- -- 73
2017-08-05 23:00:00 19.8 20 Oeste 41 Oeste 0 -- -- 73
2017-08-05 22:00:00 22.6 23 Oeste 42 Oeste 0 -- -- 61
2017-08-05 21:00:00 24.8 24 Oeste 43 Oeste 0 -- -- 57
2017-08-05 20:00:00 27.6 26 Oeste 46 Oeste 0 -- -- 53
2017-08-05 19:00:00 29.9 24 Oeste 39 Oeste 0 -- -- 50
2017-08-05 18:00:00 33.2 15 Oeste 27 Sudoeste 0 -- -- 47
2017-08-05 17:00:00 34 10 Oeste 19 Sudoeste 0 -- -- 45
2017-08-05 16:00:00 33.7 9 Sudoeste 21 Sudoeste 0 -- -- 44
2017-08-05 15:00:00 32.6 9 Sudoeste 19 Sudoeste 0 -- -- 48
2017-08-05 14:00:00 31.8 8 Oeste 16 Sudoeste 0 -- -- 49
2017-08-05 13:00:00 30.4 7 Oeste 15 Sudoeste 0 -- -- 55
2017-08-05 12:00:00 28.7 8 Sudoeste 20 Sudoeste 0 -- -- 60
2017-08-05 11:00:00 27 8 Sudoeste 13 Sudoeste 0 -- -- 62
2017-08-05 10:00:00 24.3 6 Noroeste 10 Noroeste 0 -- -- 70
2017-08-05 09:00:00 22.5 9 Noroeste 14 Noroeste 0 -- -- 77
2017-08-05 08:00:00 20.6 3 Oeste 6 Noroeste 0 -- -- 86
2017-08-05 07:00:00 19.9 4 Noroeste 11 Noroeste 0 -- -- 84
2017-08-05 06:00:00 20.1 5 Noroeste 13 Sudoeste 0 -- -- 84
2017-08-05 05:00:00 20.8 3 Sudoeste 12 Noroeste 0 -- -- 81
2017-08-05 04:00:00 21.8 8 Oeste 10 Oeste 0 -- -- 78
2017-08-05 03:00:00 22.8 6 Noroeste 18 Oeste 0 -- -- 73
2017-08-05 02:00:00 23 8 Noroeste 14 Noroeste 0 -- -- 70
2017-08-05 01:00:00 23.6 9 Oeste 16 Oeste 0 -- -- 66
2017-08-05 00:00:00 24 8 Noroeste 11 Oeste 0 -- -- 66
2017-08-04 23:00:00 26.2 8 Noroeste 15 Noroeste 0 -- -- 56
2017-08-04 22:00:00 27.9 7 Noroeste 11 Oeste 0 -- -- 63
2017-08-04 21:00:00 32.3 8 Noroeste 16 Noroeste 0 -- -- 44
2017-08-04 20:00:00 34.6 12 Noroeste 26 Noroeste 0 -- -- 35
2017-08-04 19:00:00 35.8 16 Noroeste 27 Noroeste 0 -- -- 35
2017-08-04 18:00:00 35.6 12 Oeste 24 Sudoeste 0 -- -- 36
2017-08-04 17:00:00 35.4 15 Oeste 30 Oeste 0 -- -- 34
2017-08-04 16:00:00 35.3 13 Oeste 24 Oeste 0 -- -- 36
2017-08-04 15:00:00 34.2 12 Oeste 23 Oeste 0 -- -- 37
2017-08-04 14:00:00 32.8 12 Oeste 23 Noroeste 0 -- -- 43
2017-08-04 13:00:00 31 12 Oeste 23 Sudoeste 0 -- -- 48
2017-08-04 12:00:00 29.3 9 Oeste 17 Noroeste 0 -- -- 52
2017-08-04 11:00:00 27 10 Oeste 19 Oeste 0 -- -- 60
2017-08-04 10:00:00 24.4 9 Oeste 16 Sudoeste 0 -- -- 70
2017-08-04 09:00:00 21.7 9 Noroeste 13 Noroeste 0 -- -- 80
2017-08-04 08:00:00 19.6 7 Noroeste 11 Oeste 0 -- -- 87
2017-08-04 07:00:00 19 5 Oeste 10 Oeste 0 -- -- 87
2017-08-04 06:00:00 19 4 Noroeste 10 Noroeste 0 -- -- 85
2017-08-04 05:00:00 19.6 5 Noroeste 9 Noroeste 0 -- -- 83
2017-08-04 04:00:00 20 3 Noroeste 4 Noroeste 0 -- -- 79
2017-08-04 03:00:00 21.1 0 Calma 12 Noroeste 0 -- -- 73
2017-08-04 02:00:00 22.2 9 Noroeste 13 Noroeste 0 -- -- 59
2017-08-04 01:00:00 21.1 4 Norte 19 Este 0 -- -- 68
2017-08-04 00:00:00 22.4 7 Norte 12 Oeste 0 -- -- 57
2017-08-03 23:00:00 25.1 9 Nordeste 10 Nordeste 0 -- -- 46
2017-08-03 22:00:00 26.5 6 Este 10 Este 0 -- -- 52
2017-08-03 21:00:00 30.9 6 Este 6 Este 0 -- -- 53
2017-08-03 20:00:00 35.3 4 Sudeste 12 Sur 0 -- -- 50
2017-08-03 19:00:00 35.9 4 Sudeste 9 Sudeste 0 -- -- 31
2017-08-03 18:00:00 36.4 7 Sudoeste 13 Sudoeste 0 -- -- 31
2017-08-03 17:00:00 36.3 7 Oeste 14 Sudoeste 0 -- -- 30
2017-08-03 16:00:00 35.8 7 Oeste 14 Sur 0 -- -- 33
2017-08-03 15:00:00 35.3 4 Noroeste 16 Sudoeste 0 -- -- 30
2017-08-03 14:00:00 33.9 5 Sudoeste 13 Sudoeste 0 -- -- 39
2017-08-03 13:00:00 32.5 8 Oeste 16 Sudoeste 0 -- -- 40
2017-08-03 12:00:00 31.4 3 Sur 12 Sur 0 -- -- 45
2017-08-03 11:00:00 29.6 5 Sudeste 9 Sur 0 -- -- 52
2017-08-03 10:00:00 26.8 3 Sudoeste 7 Sudeste 0 -- -- 58
2017-08-03 09:00:00 25 2 Este 5 Este 0 -- -- 65
2017-08-03 08:00:00 20.7 0 Calma 9 Este 0 -- -- 82
2017-08-03 07:00:00 20.9 8 Este 13 Este 0 -- -- 75
2017-08-03 06:00:00 21.1 9 Este 17 Este 0 -- -- 76
2017-08-03 05:00:00 21.3 10 Este 14 Nordeste 0 -- -- 75
2017-08-03 04:00:00 21 12 Este 14 Este 0 -- -- 75
2017-08-03 03:00:00 21.9 10 Este 19 Este 0 -- -- 73
2017-08-03 02:00:00 23.7 13 Este 22 Este 0 -- -- 66
2017-08-03 01:00:00 24.3 13 Este 23 Este 0 -- -- 62
2017-08-03 00:00:00 24.9 15 Nordeste 22 Nordeste 0 -- -- 59
2017-08-02 23:00:00 24.9 12 Nordeste 16 Este 0 -- -- 55
2017-08-02 22:00:00 26.3 12 Este 19 Este 0 -- -- 49
2017-08-02 21:00:00 29.1 8 Este 22 Este 0 -- -- 47
2017-08-02 20:00:00 31.2 16 Este 32 Este 0 -- -- 39
2017-08-02 19:00:00 31.7 22 Sudeste 33 Este 0 -- -- 37
2017-08-02 18:00:00 31.9 17 Sur 33 Sur 0 -- -- 32
2017-08-02 17:00:00 32.5 14 Este 24 Este 0 -- -- 35
2017-08-02 16:00:00 31.9 13 Sur 30 Sur 0 -- -- 38
2017-08-02 15:00:00 31.4 9 Sur 27 Sudeste 0 -- -- 47
2017-08-02 14:00:00 31.7 11 Sudeste 22 Sudeste 0 -- -- 43
2017-08-02 13:00:00 30.1 15 Sudeste 22 Sudeste 0 -- -- 55
2017-08-02 12:00:00 28.8 12 Sudeste 27 Sudeste 0 -- -- 59
2017-08-02 11:00:00 27.6 15 Sudeste 24 Sudeste 0 -- -- 59
2017-08-02 10:00:00 24.2 6 Sudeste 12 Sudeste 0 -- -- 74
2017-08-02 09:00:00 22.3 0 Calma 9 Sudoeste 0 -- -- 83
2017-08-02 08:00:00 20.4 2 Noroeste 8 Noroeste 0 -- -- 88
2017-08-02 07:00:00 20.6 4 Oeste 17 Este 0 -- -- 86
2017-08-02 06:00:00 20.7 13 Este 17 Sudeste 0 -- -- 87
2017-08-02 05:00:00 20.6 10 Este 13 Este 0 -- -- 85
2017-08-02 04:00:00 20.9 5 Este 15 Este 0 -- -- 83
2017-08-02 03:00:00 21.7 10 Este 15 Este 0 -- -- 79
2017-08-02 02:00:00 22.3 12 Este 21 Este 0 -- -- 80
2017-08-02 01:00:00 22.3 8 Este 15 Nordeste 0 -- -- 78
2017-08-02 00:00:00 22.8 10 Nordeste 17 Este 0 -- -- 73
2017-08-01 23:00:00 23.6 14 Este 26 Este 0 -- -- 74
2017-08-01 22:00:00 24.1 18 Este 26 Este 0 -- -- 74
2017-08-01 21:00:00 26.7 14 Sudeste 22 Sudeste 0 -- -- 63
2017-08-01 20:00:00 28.9 14 Sudeste 23 Este 0 -- -- 55
2017-08-01 19:00:00 30 15 Este 25 Este 0 -- -- 54
2017-08-01 18:00:00 30.4 15 Este 30 Sudeste 0 -- -- 54
2017-08-01 17:00:00 30 18 Sudeste 28 Sudeste 0 -- -- 53
2017-08-01 16:00:00 30.4 16 Sudeste 27 Sudeste 0 -- -- 54
2017-08-01 15:00:00 29.7 9 Sur 20 Sudeste 0 -- -- 59
2017-08-01 14:00:00 27.7 6 Sur 14 Este 0 -- -- 60
2017-08-01 13:00:00 25.5 6 Sudoeste 19 Sudoeste 0 -- -- 69
2017-08-01 12:00:00 22.7 8 Oeste 15 Noroeste 0 -- -- 69
2017-08-01 11:00:00 20.9 9 Oeste 23 Oeste 0 -- -- 72
2017-08-01 10:00:00 20.6 11 Oeste 18 Oeste 0 -- -- 72
2017-08-01 09:00:00 19.5 11 Noroeste 17 Noroeste 0 -- -- 76
2017-08-01 08:00:00 18.6 8 Oeste 13 Noroeste 0 -- -- 79
2017-08-01 07:00:00 18.2 8 Noroeste 18 Oeste 0 -- -- 80
2017-08-01 06:00:00 18.2 6 Oeste 14 Noroeste 0 -- -- 83
2017-08-01 05:00:00 18.3 8 Noroeste 15 Oeste 0 -- -- 84
2017-08-01 04:00:00 18.6 9 Noroeste 13 Noroeste 0 -- -- 83
2017-08-01 03:00:00 19.8 7 Noroeste 14 Noroeste 0 -- -- 80
2017-08-01 02:00:00 22.4 3 Nordeste 13 Este 0 -- -- 75
2017-08-01 01:00:00 23.1 9 Este 21 Este 0 -- -- 71
2017-08-01 00:00:00 24.2 17 Este 32 Sudeste 0 -- -- 66
2017-07-31 23:00:00 24.4 14 Este 32 Este 0 -- -- 62
2017-07-31 22:00:00 26.3 19 Este 32 Este 0 -- -- 57
2017-07-31 21:00:00 29.2 22 Este 32 Este 0 -- -- 49
2017-07-31 20:00:00 31.7 23 Este 35 Este 0 -- -- 42
2017-07-31 19:00:00 32.9 17 Este 33 Este 0 -- -- 42
2017-07-31 18:00:00 32.8 18 Este 30 Sudeste 0 -- -- 46
2017-07-31 17:00:00 32.6 15 Este 28 Este 0 -- -- 51
2017-07-31 16:00:00 31.6 14 Sudeste 29 Este 0 -- -- 54
2017-07-31 15:00:00 30.7 18 Sudeste 30 Este 0 -- -- 53
2017-07-31 14:00:00 29.5 18 Sudeste 31 Sudeste 0 -- -- 58
2017-07-31 13:00:00 28.4 14 Sudeste 39 Este 0 -- -- 63
2017-07-31 12:00:00 26.8 24 Sudeste 35 Sudeste 0 -- -- 67
2017-07-31 11:00:00 25.8 19 Sudeste 31 Este 0 -- -- 70
2017-07-31 10:00:00 23.6 16 Sudeste 23 Sudeste 0 -- -- 78
2017-07-31 09:00:00 19.6 3 Oeste 11 Noroeste 0 -- -- 82
2017-07-31 08:00:00 17 9 Noroeste 14 Noroeste 0 -- -- 89
2017-07-31 07:00:00 16.6 6 Noroeste 12 Noroeste 0 -- -- 89
2017-07-31 06:00:00 17.2 6 Noroeste 15 Noroeste 0 -- -- 86
2017-07-31 05:00:00 18 10 Noroeste 14 Noroeste 0 -- -- 85
2017-07-31 04:00:00 19.4 8 Noroeste 15 Noroeste 0 -- -- 82
2017-07-31 03:00:00 22.3 3 Oeste 18 Este 0 -- -- 80
2017-07-31 02:00:00 23 12 Este 20 Este 0 -- -- 79
2017-07-31 01:00:00 23.7 13 Este 30 Este 0 -- -- 77
2017-07-31 00:00:00 24.8 17 Este 28 Este 0 -- -- 71
2017-07-30 23:00:00 25.4 17 Este 31 Este 0 -- -- 68
2017-07-30 22:00:00 26.4 17 Este 26 Este 0 -- -- 65
2017-07-30 21:00:00 29.6 13 Este 30 Este 1 -- -- 61
2017-07-30 20:00:00 32.3 13 Este 27 Sudeste 0 -- -- 44
2017-07-30 19:00:00 34.1 17 Este 27 Este 0 -- -- 37
2017-07-30 18:00:00 34.1 12 Sudeste 24 Este 0 -- -- 40
2017-07-30 17:00:00 34.6 13 Sudeste 23 Este 0 -- -- 41
2017-07-30 16:00:00 34.2 10 Este 24 Este 0 -- -- 46
2017-07-30 15:00:00 33.2 8 Este 16 Este 0 -- -- 45
2017-07-30 14:00:00 31.8 8 Sudeste 17 Este 0 -- -- 45
2017-07-30 13:00:00 30.1 8 Sudeste 27 Sudeste 0 -- -- 51
2017-07-30 12:00:00 28.6 16 Sudeste 25 Sudeste 0 -- -- 52
2017-07-30 11:00:00 27.6 12 Sudeste 20 Este 0 -- -- 51
2017-07-30 10:00:00 25.7 12 Sudeste 18 Sudeste 0 -- -- 61
2017-07-30 09:00:00 24 4 Este 8 Nordeste 0 -- -- 71
2017-07-30 08:00:00 21.2 6 Nordeste 10 Nordeste 0 -- -- 84
2017-07-30 07:00:00 20.3 4 Nordeste 14 Este 0 -- -- 86
2017-07-30 06:00:00 20.5 6 Nordeste 16 Este 0 -- -- 86
2017-07-30 05:00:00 20.6 6 Nordeste 17 Este 0 -- -- 85
2017-07-30 04:00:00 21 9 Este 15 Este 0 -- -- 85
2017-07-30 03:00:00 22.3 7 Este 23 Este 0 -- -- 83
2017-07-30 02:00:00 22.7 13 Este 17 Este 0 -- -- 83
2017-07-30 01:00:00 25 16 Este 25 Este 0 -- -- 75
2017-07-30 00:00:00 25.7 15 Nordeste 23 Nordeste 0 -- -- 68
2017-07-29 23:00:00 25.9 10 Este 18 Sudeste 0 -- -- 70
2017-07-29 22:00:00 27.3 14 Este 22 Sudeste 0 -- -- 67
2017-07-29 21:00:00 29.9 14 Sudeste 21 Sudeste 0 -- -- 56
2017-07-29 20:00:00 32 13 Sudeste 22 Sudeste 0 -- -- 48
2017-07-29 19:00:00 33.3 9 Sudeste 20 Sudeste 0 -- -- 48
2017-07-29 18:00:00 33.9 5 Sudeste 15 Sudeste 0 -- -- 48
2017-07-29 17:00:00 33.5 5 Sur 13 Este 0 -- -- 50
2017-07-29 16:00:00 32.3 10 Este 17 Sudeste 0 -- -- 53
2017-07-29 15:00:00 31.1 11 Sudeste 21 Sudeste 0 -- -- 56
2017-07-29 14:00:00 29.6 12 Sudeste 27 Este 0 -- -- 59
2017-07-29 13:00:00 28.2 17 Sudeste 28 Sudeste 0 -- -- 64
2017-07-29 12:00:00 26.9 16 Sudeste 28 Sudeste 0 -- -- 68
2017-07-29 11:00:00 25.3 14 Sudeste 24 Sudeste 0 -- -- 73
2017-07-29 10:00:00 24.1 14 Este 25 Sudeste 0 -- -- 75
2017-07-29 09:00:00 22.3 5 Este 9 Este 0 -- -- 80
2017-07-29 08:00:00 20.2 2 Norte 8 Este 0 -- -- 89
2017-07-29 07:00:00 19.9 7 Nordeste 14 Nordeste 0 -- -- 88
2017-07-29 06:00:00 20.4 9 Este 13 Este 0 -- -- 86
2017-07-29 05:00:00 20.8 7 Sudeste 16 Este 0 -- -- 85
2017-07-29 04:00:00 21.4 9 Este 15 Este 0 -- -- 84
2017-07-29 03:00:00 22 9 Este 16 Este 0 -- -- 81
2017-07-29 02:00:00 22.8 11 Este 17 Este 0 -- -- 75
2017-07-29 01:00:00 23.4 8 Sudeste 18 Este 0 -- -- 74
2017-07-29 00:00:00 24.9 9 Este 15 Este 0 -- -- 63
2017-07-28 23:00:00 24.6 8 Nordeste 15 Norte 0 -- -- 63
2017-07-28 22:00:00 26.7 8 Sudeste 13 Sudeste 0 -- -- 62
2017-07-28 21:00:00 29.6 9 Sudeste 17 Sudeste 0 -- -- 54
2017-07-28 20:00:00 33.2 9 Sudeste 13 Sudeste 0 -- -- 47
2017-07-28 19:00:00 34.1 5 Sudeste 11 Sur 0 -- -- 38
2017-07-28 18:00:00 34.1 6 Sur 11 Sudeste 0 -- -- 39
2017-07-28 17:00:00 33.7 5 Sudoeste 12 Sudoeste 0 -- -- 40
2017-07-28 16:00:00 32.6 4 Oeste 14 Este 0 -- -- 42
2017-07-28 15:00:00 31.3 6 Sur 17 Sudeste 0 -- -- 48
2017-07-28 14:00:00 30.4 10 Sudeste 19 Sudeste 0 -- -- 51
2017-07-28 13:00:00 29.6 8 Este 18 Sudeste 0 -- -- 57
2017-07-28 12:00:00 28 6 Este 13 Sudeste 0 -- -- 61
2017-07-28 11:00:00 25.4 4 Sudoeste 10 Sur 0 -- -- 66
2017-07-28 10:00:00 22.6 6 Oeste 12 Noroeste 0 -- -- 71
2017-07-28 09:00:00 19.8 5 Noroeste 12 Oeste 0 -- -- 83
2017-07-28 08:00:00 18 6 Noroeste 11 Noroeste 0 -- -- 88
2017-07-28 07:00:00 16.8 6 Noroeste 9 Noroeste 0 -- -- 88
2017-07-28 06:00:00 17.3 6 Noroeste 10 Noroeste 0 -- -- 86
2017-07-28 05:00:00 18.1 6 Noroeste 17 Oeste 0 -- -- 85
2017-07-28 04:00:00 18.6 9 Noroeste 14 Noroeste 0 -- -- 83
2017-07-28 03:00:00 19 9 Noroeste 15 Noroeste 0 -- -- 79
2017-07-28 02:00:00 18.3 6 Noroeste 8 Oeste 0 -- -- 76
2017-07-28 01:00:00 19.1 3 Oeste 8 Oeste 0 -- -- 75
2017-07-28 00:00:00 21.2 7 Noroeste 13 Noroeste 0 -- -- 65
2017-07-27 23:00:00 22.6 3 Oeste 12 Noroeste 0 -- -- 66
2017-07-27 22:00:00 25 4 Noroeste 10 Noroeste 0 -- -- 61
2017-07-27 21:00:00 31.1 4 Oeste 13 Oeste 0 -- -- 40
2017-07-27 20:00:00 33.6 5 Oeste 15 Sudoeste 0 -- -- 33
2017-07-27 19:00:00 34.4 10 Oeste 20 Oeste 0 -- -- 31
2017-07-27 18:00:00 34.5 12 Oeste 22 Sudoeste 0 -- -- 28
2017-07-27 17:00:00 34.4 8 Oeste 29 Oeste 0 -- -- 28
2017-07-27 16:00:00 33.4 15 Oeste 30 Noroeste 0 -- -- 28
2017-07-27 15:00:00 32.2 11 Oeste 21 Sudoeste 0 -- -- 34
2017-07-27 14:00:00 31 7 Sudoeste 19 Sudoeste 0 -- -- 31
2017-07-27 13:00:00 29.2 8 Sudoeste -- -- -- -- -- 34
2017-07-27 12:00:00 27.1 10 Oeste -- -- -- -- -- 39
2017-07-27 11:00:00 -- -- -- -- -- -- -- -- --
2017-07-27 10:00:00 -- -- -- -- -- -- -- -- --
2017-07-27 09:00:00 18.9 6 Sudoeste 9 Sudoeste 0 -- -- 71
2017-07-27 08:00:00 16.8 4 Nordeste 9 Nordeste 0 -- -- 80
2017-07-27 07:00:00 15.6 4 Nordeste 13 Oeste 0 -- -- 81
2017-07-27 06:00:00 16.2 8 Oeste 14 Oeste 0 -- -- 78
2017-07-27 05:00:00 16.8 7 Oeste 15 Sudoeste 0 -- -- 79
2017-07-27 04:00:00 17 5 Oeste 19 Oeste 0 -- -- 78
2017-07-27 03:00:00 18.7 10 Oeste 21 Oeste 0 -- -- 70
2017-07-27 02:00:00 18.4 9 Oeste 22 Noroeste 0 -- -- 72
2017-07-27 01:00:00 19.3 18 Noroeste 27 Noroeste 0 -- -- 68
2017-07-27 00:00:00 18.1 8 Noroeste 17 Oeste 0 -- -- 69
2017-07-26 23:00:00 21 11 Noroeste 20 Oeste 0 -- -- 51
2017-07-26 22:00:00 23.4 13 Noroeste 20 Oeste 0 -- -- 49
2017-07-26 21:00:00 26.9 8 Oeste 31 Oeste 0 -- -- 43
2017-07-26 20:00:00 28.5 18 Noroeste 38 Oeste 0 -- -- 39
2017-07-26 19:00:00 30.1 21 Oeste 41 Oeste 0 -- -- 37
2017-07-26 18:00:00 30.7 23 Oeste 45 Oeste 0 -- -- 36
2017-07-26 17:00:00 30.9 22 Oeste 41 Oeste 0 -- -- 37
2017-07-26 16:00:00 29.7 24 Oeste 50 Oeste 0 -- -- 42
2017-07-26 15:00:00 28.3 23 Oeste 40 Sudoeste 0 -- -- 44
2017-07-26 14:00:00 27.1 17 Oeste 31 Sudoeste 0 -- -- 48
2017-07-26 13:00:00 25 13 Oeste 28 Oeste 0 -- -- 47
2017-07-26 12:00:00 22.9 13 Oeste 28 Sudoeste 0 -- -- 53
2017-07-26 11:00:00 21.3 14 Oeste 24 Sudoeste 0 -- -- 58
2017-07-26 10:00:00 18.9 12 Oeste 26 Oeste 0 -- -- 63
2017-07-26 09:00:00 16.5 14 Oeste 24 Oeste 0 -- -- 73
2017-07-26 08:00:00 14.6 12 Oeste 27 Oeste 0 -- -- 78
2017-07-26 07:00:00 13.7 19 Oeste 35 Oeste 0 -- -- 82
2017-07-26 06:00:00 14 18 Oeste 30 Noroeste 0 -- -- 81
2017-07-26 05:00:00 14.3 18 Oeste 44 Oeste 0 -- -- 80
2017-07-26 04:00:00 14.5 21 Oeste 36 Oeste 0 -- -- 79
2017-07-26 03:00:00 14.9 19 Oeste 32 Oeste 0 -- -- 77
2017-07-26 02:00:00 15.3 16 Oeste 28 Oeste 0 -- -- 74
2017-07-26 01:00:00 16 15 Oeste 37 Oeste 0 -- -- 67
2017-07-26 00:00:00 16.7 24 Oeste 44 Oeste 0 -- -- 65
2017-07-25 23:00:00 17.9 24 Oeste 48 Oeste 0 -- -- 60
2017-07-25 22:00:00 19 28 Oeste 46 Oeste 0 -- -- 58
2017-07-25 21:00:00 21.1 27 Oeste 53 Oeste 0 -- -- 51
2017-07-25 20:00:00 23.4 29 Oeste 49 Oeste 0 -- -- 45
2017-07-25 19:00:00 24.6 28 Oeste 51 Oeste 0 -- -- 43
2017-07-25 18:00:00 26.7 23 Oeste 53 Oeste 0 -- -- 40
2017-07-25 17:00:00 26.3 28 Oeste 50 Oeste 0 -- -- 42
2017-07-25 16:00:00 27 26 Oeste 47 Oeste 0 -- -- 39
2017-07-25 15:00:00 26.7 23 Oeste 44 Oeste 0 -- -- 41
2017-07-25 14:00:00 26 22 Oeste 40 Sudoeste 0 -- -- 43
2017-07-25 13:00:00 25.4 19 Oeste 35 Oeste 0 -- -- 41
2017-07-25 12:00:00 24.2 14 Noroeste 27 Noroeste 0 -- -- 44
2017-07-25 11:00:00 22.4 17 Noroeste 35 Oeste 0 -- -- 48
2017-07-25 10:00:00 20 21 Oeste 35 Oeste 0 -- -- 59
2017-07-25 09:00:00 17.5 17 Oeste 32 Noroeste 0 -- -- 67
2017-07-25 08:00:00 15.5 15 Oeste 27 Oeste 0 -- -- 71
2017-07-25 07:00:00 14.6 14 Oeste 30 Oeste 0 -- -- 73
2017-07-25 06:00:00 14.6 18 Oeste 34 Noroeste 0 -- -- 78
2017-07-25 05:00:00 15.3 20 Oeste 37 Oeste 0 -- -- 76
2017-07-25 04:00:00 15.5 18 Oeste 38 Oeste 0 -- -- 75
2017-07-25 03:00:00 16 23 Oeste 40 Oeste 0 -- -- 74
2017-07-25 02:00:00 16.5 27 Oeste 45 Oeste 0 -- -- 74
2017-07-25 01:00:00 17 22 Oeste 39 Oeste 0 -- -- 72
2017-07-25 00:00:00 18.5 13 Oeste 41 Noroeste 0 -- -- 61
2017-07-24 23:00:00 19.2 30 Noroeste 45 Noroeste 0 -- -- 62
2017-07-24 22:00:00 20.2 27 Noroeste 50 Oeste 0 -- -- 61
2017-07-24 21:00:00 21.7 31 Noroeste 54 Oeste 0 -- -- 57
2017-07-24 20:00:00 23.7 32 Noroeste 54 Oeste 0 -- -- 50
2017-07-24 19:00:00 25.3 31 Oeste 57 Noroeste 0 -- -- 47
2017-07-24 18:00:00 26.2 33 Noroeste 52 Oeste 0 -- -- 44
2017-07-24 17:00:00 26.9 28 Noroeste 50 Noroeste 0 -- -- 44
2017-07-24 16:00:00 26.7 32 Noroeste 51 Oeste 0 -- -- 42
2017-07-24 15:00:00 26.3 30 Noroeste 54 Oeste 0 -- -- 46
2017-07-24 14:00:00 25.8 35 Noroeste 56 Noroeste 0 -- -- 46
2017-07-24 13:00:00 25.2 33 Noroeste 54 Noroeste 0 -- -- 47
2017-07-24 12:00:00 24.9 31 Noroeste 48 Noroeste 0 -- -- 49
2017-07-24 11:00:00 23.4 32 Oeste 53 Noroeste 0 -- -- 56
2017-07-24 10:00:00 22.7 32 Noroeste 51 Oeste 0 -- -- 58
2017-07-24 09:00:00 20.5 27 Oeste 45 Oeste 0 -- -- 70
2017-07-24 08:00:00 19.2 27 Oeste 46 Noroeste 0 -- -- 74
2017-07-24 07:00:00 18 18 Oeste 33 Oeste 0 -- -- 80
2017-07-24 06:00:00 17.4 18 Oeste 36 Oeste 0 -- -- 82
2017-07-24 05:00:00 17.5 19 Oeste 33 Oeste 0 -- -- 78
2017-07-24 04:00:00 17.5 12 Oeste 28 Oeste 0 -- -- 76
2017-07-24 03:00:00 17.2 19 Noroeste 37 Oeste 0 -- -- 74
2017-07-24 02:00:00 17.6 20 Oeste 33 Noroeste 0 -- -- 70
2017-07-24 01:00:00 18.4 17 Oeste 29 Oeste 0 -- -- 64
2017-07-24 00:00:00 19.9 18 Oeste 31 Oeste 0 -- -- 60
2017-07-23 23:00:00 21.5 17 Oeste 27 Oeste 0 -- -- 52
2017-07-23 22:00:00 23.4 10 Oeste 21 Noroeste 0 -- -- 48
2017-07-23 21:00:00 26.6 8 Oeste 28 Oeste 0 -- -- 46
2017-07-23 20:00:00 29 15 Oeste 27 Noroeste 0 -- -- 48
2017-07-23 19:00:00 30.5 6 Sudoeste 13 Oeste 0 -- -- 49
2017-07-23 18:00:00 30.2 5 Sur 10 Sur 0 -- -- 49
2017-07-23 17:00:00 29.4 5 Sudeste 14 Sudoeste 0 -- -- 49
2017-07-23 16:00:00 28.5 9 Sudoeste 14 Sur 0 -- -- 53
2017-07-23 15:00:00 27.3 4 Sudoeste 15 Oeste 0 -- -- 56
2017-07-23 14:00:00 26 7 Sudoeste 17 Sudoeste 0 -- -- 60
2017-07-23 13:00:00 24.2 6 Sudoeste 15 Oeste 0 -- -- 63
2017-07-23 12:00:00 21.9 13 Noroeste 22 Oeste 0 -- -- 67
2017-07-23 11:00:00 20.1 9 Oeste 20 Sudoeste 0 -- -- 71
2017-07-23 10:00:00 18.6 7 Oeste 19 Oeste 0 -- -- 76
2017-07-23 09:00:00 17 11 Oeste 22 Noroeste 0 -- -- 79
2017-07-23 08:00:00 16.5 13 Oeste 22 Oeste 0 -- -- 81
2017-07-23 07:00:00 16.5 12 Oeste 22 Oeste 0 -- -- 81
2017-07-23 06:00:00 16.8 11 Oeste 23 Oeste 0 -- -- 81
2017-07-23 05:00:00 17.6 9 Oeste 23 Oeste 0 -- -- 79
2017-07-23 04:00:00 17.9 8 Oeste 15 Noroeste 0 -- -- 80
2017-07-23 03:00:00 18 7 Noroeste 20 Oeste 0 -- -- 79
2017-07-23 02:00:00 18.8 12 Noroeste 20 Noroeste 0 -- -- 75
2017-07-23 01:00:00 20.9 13 Noroeste 20 Noroeste 0 -- -- 70
2017-07-23 00:00:00 23.6 4 Nordeste 14 Este 0 -- -- 73
2017-07-22 23:00:00 24.3 6 Este 12 Sudeste 0 -- -- 68
2017-07-22 22:00:00 25.1 8 Sudeste 11 Sudeste 0 -- -- 65
2017-07-22 21:00:00 28 9 Sudeste 14 Este 0 -- -- 56
2017-07-22 20:00:00 29.9 7 Sudeste 13 Sudeste 0 -- -- 53
2017-07-22 19:00:00 30.5 5 Sur 13 Sudoeste 0 -- -- 50
2017-07-22 18:00:00 30.3 9 Sudeste 15 Sudeste 0 -- -- 50
2017-07-22 17:00:00 29.8 9 Sur 13 Sur 0 -- -- 50
2017-07-22 16:00:00 29 11 Sudeste 19 Sudeste 0 -- -- 56
2017-07-22 15:00:00 28.3 8 Sudeste 20 Sudeste 0 -- -- 60
2017-07-22 14:00:00 27.2 9 Sudeste 22 Sudeste 0 -- -- 65
2017-07-22 13:00:00 26.2 11 Sudeste 23 Sudeste 0 -- -- 67
2017-07-22 12:00:00 25.1 14 Sudeste 23 Sudeste 0 -- -- 71
2017-07-22 11:00:00 23.9 11 Sudeste 19 Sudeste 0 -- -- 75
2017-07-22 10:00:00 22.1 7 Sudeste 13 Sudeste 0 -- -- 83
2017-07-22 09:00:00 19.6 0 Calma 5 Noroeste 0 -- -- 90
2017-07-22 08:00:00 17.4 3 Noroeste 4 Noroeste 0 -- -- 93
2017-07-22 07:00:00 16.8 4 Noroeste 7 Noroeste 0 -- -- 92
2017-07-22 06:00:00 17.1 3 Sudoeste 6 Norte 0 -- -- 91
2017-07-22 05:00:00 17.1 0 Calma 4 Noroeste 0 -- -- 89
2017-07-22 04:00:00 18.2 0 Calma 12 Este 0 -- -- 87
2017-07-22 03:00:00 19.2 9 Este 16 Este 0 -- -- 85
2017-07-22 02:00:00 19.9 10 Este 15 Nordeste 0 -- -- 84
2017-07-22 01:00:00 20.7 7 Nordeste 15 Nordeste 0 -- -- 84
2017-07-22 00:00:00 21.3 0 Calma 19 Este 0 -- -- 85
2017-07-21 23:00:00 22 7 Nordeste 17 Este 0 -- -- 82
2017-07-21 22:00:00 22.7 5 Sudeste 14 Sudeste 2 -- -- 82
2017-07-21 21:00:00 24.6 12 Este 22 Este 0.2 -- -- 70
2017-07-21 20:00:00 25.5 14 Este 27 Sudeste 0 -- -- 64
2017-07-21 19:00:00 27.1 20 Sudeste 31 Este 0 -- -- 59
2017-07-21 18:00:00 27.1 21 Este 33 Este 0 -- -- 58
2017-07-21 17:00:00 27.1 16 Este 34 Sudeste 0 -- -- 59
2017-07-21 16:00:00 27.2 18 Este 35 Este 0 -- -- 55
2017-07-21 15:00:00 26.3 20 Este 34 Este 0 -- -- 58
2017-07-21 14:00:00 24.9 19 Sudeste 29 Este 0 -- -- 65
2017-07-21 13:00:00 24.1 15 Este 27 Este 0 -- -- 66
2017-07-21 12:00:00 22.8 17 Este 27 Este 0 -- -- 66
2017-07-21 11:00:00 21.4 10 Este 19 Este 0 -- -- 68
2017-07-21 10:00:00 18.5 2 Sudoeste 9 Oeste 0 -- -- 74
2017-07-21 09:00:00 17.1 3 Noroeste 8 Oeste 0 -- -- 79
2017-07-21 08:00:00 16.4 4 Oeste 10 Oeste 0 -- -- 81
2017-07-21 07:00:00 15.9 7 Noroeste 13 Oeste 0 -- -- 83
2017-07-21 06:00:00 16 5 Noroeste 9 Noroeste 0 -- -- 83
2017-07-21 05:00:00 16.3 3 Oeste 19 Oeste 0 -- -- 78
2017-07-21 04:00:00 16.7 10 Oeste 20 Oeste 0 -- -- 75
2017-07-21 03:00:00 16.7 8 Oeste 15 Oeste 0 -- -- 77
2017-07-21 02:00:00 17.1 9 Noroeste 20 Oeste 0 -- -- 75
2017-07-21 01:00:00 17.9 10 Oeste 27 Noroeste 0 -- -- 72
2017-07-21 00:00:00 19.2 10 Oeste 26 Oeste 0 -- -- 68
2017-07-20 23:00:00 21.1 14 Oeste 38 Oeste 0 -- -- 62
2017-07-20 22:00:00 23.8 19 Oeste 33 Oeste 0 -- -- 55
2017-07-20 21:00:00 27 13 Oeste 25 Oeste 0 -- -- 48
2017-07-20 20:00:00 30.4 8 Oeste 17 Noroeste 0 -- -- 40
2017-07-20 19:00:00 31.2 9 Oeste 16 Oeste 0 -- -- 39
2017-07-20 18:00:00 31.2 8 Sudoeste 16 Oeste 0 -- -- 42
2017-07-20 17:00:00 30.6 5 Sudoeste 16 Oeste 0 -- -- 42
2017-07-20 16:00:00 29.7 7 Sudeste 18 Sudoeste 0 -- -- 45
2017-07-20 15:00:00 28.9 5 Sur 17 Oeste 0 -- -- 45
2017-07-20 14:00:00 27.9 5 Sudoeste 17 Oeste 0 -- -- 47
2017-07-20 13:00:00 27 9 Sudoeste 22 Noroeste 0 -- -- 53
2017-07-20 12:00:00 25.5 7 Oeste 19 Sudoeste 0 -- -- 58
2017-07-20 11:00:00 23.7 9 Noroeste 18 Oeste 0 -- -- 65
2017-07-20 10:00:00 21.5 11 Oeste 21 Oeste 0 -- -- 73
2017-07-20 09:00:00 19.3 8 Oeste 15 Noroeste 0 -- -- 81
2017-07-20 08:00:00 17.1 6 Oeste 11 Oeste 0 -- -- 88
2017-07-20 07:00:00 16.3 4 Oeste 10 Noroeste 0 -- -- 88
2017-07-20 06:00:00 16.9 4 Oeste 6 Oeste 0 -- -- 87
2017-07-20 05:00:00 17.4 4 Oeste 15 Noroeste 0 -- -- 86
2017-07-20 04:00:00 18.1 6 Oeste 11 Noroeste 0 -- -- 85
2017-07-20 03:00:00 18.1 6 Noroeste 9 Noroeste 0 -- -- 79
2017-07-20 02:00:00 19.9 5 Nordeste 9 Nordeste 0 -- -- 59
2017-07-20 01:00:00 21.6 5 Nordeste 15 Este 0 -- -- 53
2017-07-20 00:00:00 23.4 11 Nordeste 25 Este 0 -- -- 46
2017-07-19 23:00:00 23.8 16 Este 28 Este 0 -- -- 48
2017-07-19 22:00:00 25.3 15 Este 24 Este 0 -- -- 46
2017-07-19 21:00:00 26.1 17 Este 31 Sudeste 0 -- -- 52
2017-07-19 20:00:00 27.5 22 Este 37 Este 0 -- -- 48
2017-07-19 19:00:00 29.8 25 Este 41 Este 0 -- -- 45
2017-07-19 18:00:00 30.6 24 Este 38 Este 0 -- -- 45
2017-07-19 17:00:00 30.9 19 Este 31 Este 0 -- -- 46
2017-07-19 16:00:00 31.5 18 Este 31 Sudeste 0 -- -- 39
2017-07-19 15:00:00 30.4 19 Este 33 Este 0 -- -- 41
2017-07-19 14:00:00 28.9 19 Este 36 Sudeste 0 -- -- 44
2017-07-19 13:00:00 28.1 21 Este 37 Sudeste 0 -- -- 45
2017-07-19 12:00:00 26.4 24 Sudeste 35 Este 0 -- -- 55
2017-07-19 11:00:00 24.6 22 Sudeste 36 Este 0 -- -- 66
2017-07-19 10:00:00 23.7 25 Este 36 Este 0 -- -- 68
2017-07-19 09:00:00 21.2 20 Este 33 Este 0 -- -- 80
2017-07-19 08:00:00 20.5 20 Este 35 Este 0 -- -- 83
2017-07-19 07:00:00 19.9 23 Nordeste 33 Nordeste 0 -- -- 78
2017-07-19 06:00:00 19.2 14 Nordeste 22 Nordeste 0 -- -- 87
2017-07-19 05:00:00 19.6 13 Este 33 Sudeste 0 -- -- 84
2017-07-19 04:00:00 20 24 Sudeste 42 Sudeste 0 -- -- 85
2017-07-19 03:00:00 20.7 19 Sudeste 30 Sudeste 0 -- -- 80
2017-07-19 02:00:00 22.1 17 Nordeste 29 Este 0 -- -- 70
2017-07-19 01:00:00 22.2 13 Nordeste 31 Este 0 -- -- 71
2017-07-19 00:00:00 22.2 28 Este 44 Sudeste 1 -- -- 76